sensor_id;sensor_type;location;lat;lon;timestamp;pressure;altitude;pressure_sealevel;temperature;humidity
54556;BME280;57291;37.520;15.106;2023-04-06T00:01:08;100968.94;;;10.26;54.52
54556;BME280;57291;37.520;15.106;2023-04-06T00:03:35;100966.38;;;10.40;53.99
54556;BME280;57291;37.520;15.106;2023-04-06T00:06:03;100975.22;;;10.51;53.45
54556;BME280;57291;37.520;15.106;2023-04-06T00:08:30;100983.56;;;10.60;53.37
54556;BME280;57291;37.520;15.106;2023-04-06T00:10:57;100974.78;;;10.63;52.96
54556;BME280;57291;37.520;15.106;2023-04-06T00:13:25;100965.50;;;10.69;52.93
54556;BME280;57291;37.520;15.106;2023-04-06T00:15:52;100976.91;;;10.71;52.64
54556;BME280;57291;37.520;15.106;2023-04-06T00:18:19;100969.84;;;10.70;52.51
54556;BME280;57291;37.520;15.106;2023-04-06T00:20:46;100979.06;;;10.69;51.31
54556;BME280;57291;37.520;15.106;2023-04-06T00:23:13;100976.66;;;10.67;52.76
54556;BME280;57291;37.520;15.106;2023-04-06T00:25:40;100965.44;;;10.50;54.56
54556;BME280;57291;37.520;15.106;2023-04-06T00:28:07;100957.47;;;10.35;55.99
54556;BME280;57291;37.520;15.106;2023-04-06T00:30:35;100927.13;;;10.22;57.02
54556;BME280;57291;37.520;15.106;2023-04-06T00:33:02;100904.97;;;10.10;57.65
54556;BME280;57291;37.520;15.106;2023-04-06T00:35:29;100892.25;;;10.05;57.77
54556;BME280;57291;37.520;15.106;2023-04-06T00:37:57;100880.59;;;10.05;57.48
54556;BME280;57291;37.520;15.106;2023-04-06T00:40:24;100870.84;;;10.04;57.57
54556;BME280;57291;37.520;15.106;2023-04-06T00:42:52;100867.34;;;9.98;57.71
54556;BME280;57291;37.520;15.106;2023-04-06T00:45:19;100884.53;;;9.94;58.00
54556;BME280;57291;37.520;15.106;2023-04-06T00:47:46;100885.38;;;9.89;58.07
54556;BME280;57291;37.520;15.106;2023-04-06T00:50:13;100880.50;;;9.86;58.30
54556;BME280;57291;37.520;15.106;2023-04-06T00:52:40;100883.78;;;9.83;58.32
54556;BME280;57291;37.520;15.106;2023-04-06T00:55:09;100900.94;;;9.78;58.84
54556;BME280;57291;37.520;15.106;2023-04-06T00:57:40;100897.75;;;9.71;59.16
54556;BME280;57291;37.520;15.106;2023-04-06T01:00:09;100901.31;;;9.67;59.37
54556;BME280;57291;37.520;15.106;2023-04-06T01:02:38;100911.13;;;9.62;59.84
54556;BME280;57291;37.520;15.106;2023-04-06T01:05:06;100894.59;;;9.59;59.98
54556;BME280;57291;37.520;15.106;2023-04-06T01:07:46;100889.44;;;9.57;60.27
54556;BME280;57291;37.520;15.106;2023-04-06T01:10:25;100892.47;;;9.51;60.51
54556;BME280;57291;37.520;15.106;2023-04-06T01:13:02;100897.66;;;9.47;60.85
54556;BME280;57291;37.520;15.106;2023-04-06T01:16:07;100898.28;;;9.39;61.04
54556;BME280;57291;37.520;15.106;2023-04-06T01:18:47;100898.59;;;9.32;61.52
54556;BME280;57291;37.520;15.106;2023-04-06T01:21:26;100901.63;;;9.26;61.91
54556;BME280;57291;37.520;15.106;2023-04-06T01:24:24;100894.31;;;9.21;62.13
54556;BME280;57291;37.520;15.106;2023-04-06T01:27:01;100907.13;;;9.15;62.06
54556;BME280;57291;37.520;15.106;2023-04-06T01:29:39;100898.19;;;9.15;62.28
54556;BME280;57291;37.520;15.106;2023-04-06T01:32:10;100908.75;;;9.16;62.05
54556;BME280;57291;37.520;15.106;2023-04-06T01:34:46;100903.63;;;9.15;62.11
54556;BME280;57291;37.520;15.106;2023-04-06T01:37:13;100895.22;;;9.11;62.22
54556;BME280;57291;37.520;15.106;2023-04-06T01:39:42;100906.09;;;9.06;62.55
54556;BME280;57291;37.520;15.106;2023-04-06T01:42:16;100900.69;;;9.01;62.64
54556;BME280;57291;37.520;15.106;2023-04-06T01:44:46;100895.03;;;8.98;62.79
54556;BME280;57291;37.520;15.106;2023-04-06T01:47:15;100876.59;;;8.95;62.98
54556;BME280;57291;37.520;15.106;2023-04-06T01:49:43;100880.16;;;8.95;62.86
54556;BME280;57291;37.520;15.106;2023-04-06T01:52:11;100870.38;;;8.94;63.00
54556;BME280;57291;37.520;15.106;2023-04-06T01:54:42;100862.81;;;8.91;63.05
54556;BME280;57291;37.520;15.106;2023-04-06T01:57:15;100853.88;;;8.90;63.25
54556;BME280;57291;37.520;15.106;2023-04-06T02:00:02;100857.69;;;8.84;63.41
54556;BME280;57291;37.520;15.106;2023-04-06T02:02:47;100857.19;;;8.82;63.66
54556;BME280;57291;37.520;15.106;2023-04-06T02:05:20;100861.81;;;8.77;63.98
54556;BME280;57291;37.520;15.106;2023-04-06T02:07:49;100870.22;;;8.75;64.26
54556;BME280;57291;37.520;15.106;2023-04-06T02:10:25;100852.66;;;8.67;64.49
54556;BME280;57291;37.520;15.106;2023-04-06T02:12:53;100854.00;;;8.70;64.09
54556;BME280;57291;37.520;15.106;2023-04-06T02:15:25;100852.63;;;8.73;64.25
54556;BME280;57291;37.520;15.106;2023-04-06T02:17:53;100856.09;;;8.78;63.89
54556;BME280;57291;37.520;15.106;2023-04-06T02:20:20;100845.56;;;8.77;63.92
54556;BME280;57291;37.520;15.106;2023-04-06T02:22:49;100858.00;;;8.83;63.61
54556;BME280;57291;37.520;15.106;2023-04-06T02:25:16;100867.41;;;8.90;62.51
54556;BME280;57291;37.520;15.106;2023-04-06T02:27:43;100874.97;;;8.99;61.96
54556;BME280;57291;37.520;15.106;2023-04-06T02:30:11;100878.66;;;9.13;60.80
54556;BME280;57291;37.520;15.106;2023-04-06T02:32:38;100887.53;;;9.24;60.38
54556;BME280;57291;37.520;15.106;2023-04-06T02:35:06;100889.94;;;9.30;59.99
54556;BME280;57291;37.520;15.106;2023-04-06T02:37:34;100882.81;;;9.39;59.37
54556;BME280;57291;37.520;15.106;2023-04-06T02:40:01;100876.28;;;9.40;59.03
54556;BME280;57291;37.520;15.106;2023-04-06T02:42:31;100885.53;;;9.39;58.99
54556;BME280;57291;37.520;15.106;2023-04-06T02:44:59;100884.72;;;9.39;58.84
54556;BME280;57291;37.520;15.106;2023-04-06T02:47:31;100886.91;;;9.37;58.83
54556;BME280;57291;37.520;15.106;2023-04-06T02:49:58;100886.63;;;9.38;58.84
54556;BME280;57291;37.520;15.106;2023-04-06T02:52:25;100889.91;;;9.35;58.55
54556;BME280;57291;37.520;15.106;2023-04-06T02:54:53;100881.78;;;9.30;59.00
54556;BME280;57291;37.520;15.106;2023-04-06T02:57:25;100892.31;;;9.37;58.87
54556;BME280;57291;37.520;15.106;2023-04-06T02:59:53;100900.44;;;9.42;58.33
54556;BME280;57291;37.520;15.106;2023-04-06T03:02:28;100906.91;;;9.46;57.74
54556;BME280;57291;37.520;15.106;2023-04-06T03:05:04;100906.34;;;9.49;57.43
54556;BME280;57291;37.520;15.106;2023-04-06T03:07:36;100919.38;;;9.47;58.04
54556;BME280;57291;37.520;15.106;2023-04-06T03:10:05;100918.06;;;9.45;57.82
54556;BME280;57291;37.520;15.106;2023-04-06T03:12:32;100927.56;;;9.42;57.67
54556;BME280;57291;37.520;15.106;2023-04-06T03:15:18;100931.56;;;9.50;57.42
54556;BME280;57291;37.520;15.106;2023-04-06T03:17:50;100939.19;;;9.48;57.62
54556;BME280;57291;37.520;15.106;2023-04-06T03:20:32;100930.28;;;9.42;58.42
54556;BME280;57291;37.520;15.106;2023-04-06T03:22:59;100922.97;;;9.37;58.85
54556;BME280;57291;37.520;15.106;2023-04-06T03:25:30;100931.16;;;9.32;59.64
54556;BME280;57291;37.520;15.106;2023-04-06T03:28:02;100931.97;;;9.28;59.75
54556;BME280;57291;37.520;15.106;2023-04-06T03:30:32;100942.31;;;9.26;59.75
54556;BME280;57291;37.520;15.106;2023-04-06T03:32:59;100951.25;;;9.26;59.92
54556;BME280;57291;37.520;15.106;2023-04-06T03:35:31;100955.28;;;9.34;59.47
54556;BME280;57291;37.520;15.106;2023-04-06T03:37:58;100960.59;;;9.49;58.78
54556;BME280;57291;37.520;15.106;2023-04-06T03:40:26;100969.47;;;9.60;58.76
54556;BME280;57291;37.520;15.106;2023-04-06T03:42:54;100965.63;;;9.66;58.67
54556;BME280;57291;37.520;15.106;2023-04-06T03:45:21;100955.00;;;9.75;58.50
54556;BME280;57291;37.520;15.106;2023-04-06T03:47:50;100951.16;;;9.81;58.39
54556;BME280;57291;37.520;15.106;2023-04-06T03:50:18;100956.34;;;9.77;58.50
54556;BME280;57291;37.520;15.106;2023-04-06T03:52:45;100963.16;;;9.70;58.82
54556;BME280;57291;37.520;15.106;2023-04-06T03:55:12;100948.88;;;9.59;59.42
54556;BME280;57291;37.520;15.106;2023-04-06T03:57:40;100949.44;;;9.51;59.86
54556;BME280;57291;37.520;15.106;2023-04-06T04:00:07;100963.63;;;9.43;60.55
54556;BME280;57291;37.520;15.106;2023-04-06T04:02:40;100961.47;;;9.39;61.11
54556;BME280;57291;37.520;15.106;2023-04-06T04:05:08;100954.75;;;9.32;61.81
54556;BME280;57291;37.520;15.106;2023-04-06T04:07:36;100963.75;;;9.22;62.26
54556;BME280;57291;37.520;15.106;2023-04-06T04:10:04;100970.00;;;9.18;63.09
54556;BME280;57291;37.520;15.106;2023-04-06T04:12:32;100974.91;;;9.15;63.88
54556;BME280;57291;37.520;15.106;2023-04-06T04:14:59;100956.50;;;9.07;64.44
54556;BME280;57291;37.520;15.106;2023-04-06T04:17:26;100953.03;;;9.02;64.62
54556;BME280;57291;37.520;15.106;2023-04-06T04:19:53;100962.53;;;8.94;65.43
54556;BME280;57291;37.520;15.106;2023-04-06T04:22:20;100965.03;;;8.85;65.86
54556;BME280;57291;37.520;15.106;2023-04-06T04:24:47;100967.50;;;8.82;66.39
54556;BME280;57291;37.520;15.106;2023-04-06T04:27:15;100965.88;;;8.76;67.18
54556;BME280;57291;37.520;15.106;2023-04-06T04:29:42;100951.81;;;8.68;68.00
54556;BME280;57291;37.520;15.106;2023-04-06T04:32:12;100962.94;;;8.62;68.46
54556;BME280;57291;37.520;15.106;2023-04-06T04:34:39;100948.31;;;8.58;68.98
54556;BME280;57291;37.520;15.106;2023-04-06T04:37:12;100952.13;;;8.57;69.21
54556;BME280;57291;37.520;15.106;2023-04-06T04:39:48;100945.91;;;8.51;69.40
54556;BME280;57291;37.520;15.106;2023-04-06T04:42:15;100934.81;;;8.53;69.54
54556;BME280;57291;37.520;15.106;2023-04-06T04:44:48;100930.19;;;8.53;69.74
54556;BME280;57291;37.520;15.106;2023-04-06T04:47:25;100925.31;;;8.55;69.86
54556;BME280;57291;37.520;15.106;2023-04-06T04:49:53;100941.53;;;8.65;69.46
54556;BME280;57291;37.520;15.106;2023-04-06T04:52:22;100948.69;;;9.01;69.12
54556;BME280;57291;37.520;15.106;2023-04-06T04:55:15;100947.34;;;9.77;66.78
54556;BME280;57291;37.520;15.106;2023-04-06T04:57:45;100945.59;;;10.49;63.40
54556;BME280;57291;37.520;15.106;2023-04-06T05:00:13;100945.72;;;11.25;59.86
54556;BME280;57291;37.520;15.106;2023-04-06T05:02:43;100952.00;;;11.96;56.85
54556;BME280;57291;37.520;15.106;2023-04-06T05:05:39;100956.31;;;12.85;54.46
54556;BME280;57291;37.520;15.106;2023-04-06T05:08:07;100962.41;;;13.32;52.48
54556;BME280;57291;37.520;15.106;2023-04-06T05:10:46;100961.41;;;13.28;51.86
54556;BME280;57291;37.520;15.106;2023-04-06T05:13:15;100959.66;;;12.54;54.26
54556;BME280;57291;37.520;15.106;2023-04-06T05:15:45;100957.41;;;12.56;55.18
54556;BME280;57291;37.520;15.106;2023-04-06T05:18:25;100958.34;;;12.65;54.92
54556;BME280;57291;37.520;15.106;2023-04-06T05:20:53;100971.88;;;12.84;54.76
54556;BME280;57291;37.520;15.106;2023-04-06T05:23:27;100973.13;;;13.28;53.82
54556;BME280;57291;37.520;15.106;2023-04-06T05:25:55;100981.06;;;13.97;52.95
54556;BME280;57291;37.520;15.106;2023-04-06T05:28:22;100980.78;;;14.61;50.81
54556;BME280;57291;37.520;15.106;2023-04-06T05:30:49;100991.06;;;15.04;50.39
54556;BME280;57291;37.520;15.106;2023-04-06T05:33:17;101001.44;;;15.51;48.88
54556;BME280;57291;37.520;15.106;2023-04-06T05:35:58;101003.56;;;16.53;47.61
54556;BME280;57291;37.520;15.106;2023-04-06T05:38:28;100991.03;;;17.53;43.90
54556;BME280;57291;37.520;15.106;2023-04-06T05:40:59;101003.72;;;18.20;42.40
54556;BME280;57291;37.520;15.106;2023-04-06T05:43:30;101006.22;;;18.95;41.95
54556;BME280;57291;37.520;15.106;2023-04-06T05:45:59;101014.00;;;19.71;40.17
54556;BME280;57291;37.520;15.106;2023-04-06T05:48:26;101020.09;;;20.20;38.73
54556;BME280;57291;37.520;15.106;2023-04-06T05:50:54;101020.22;;;20.39;38.35
54556;BME280;57291;37.520;15.106;2023-04-06T05:53:28;101020.91;;;20.80;37.53
54556;BME280;57291;37.520;15.106;2023-04-06T05:56:02;101031.41;;;20.91;36.98
54556;BME280;57291;37.520;15.106;2023-04-06T05:58:30;101031.56;;;20.98;35.53
54556;BME280;57291;37.520;15.106;2023-04-06T06:01:01;101026.44;;;20.65;36.18
54556;BME280;57291;37.520;15.106;2023-04-06T06:03:37;101030.03;;;17.46;42.77
54556;BME280;57291;37.520;15.106;2023-04-06T06:06:05;101031.47;;;19.22;39.65
54556;BME280;57291;37.520;15.106;2023-04-06T06:08:59;101036.16;;;19.74;38.73
54556;BME280;57291;37.520;15.106;2023-04-06T06:11:31;101039.59;;;20.55;36.43
54556;BME280;57291;37.520;15.106;2023-04-06T06:14:01;101050.03;;;20.94;35.16
54556;BME280;57291;37.520;15.106;2023-04-06T06:16:32;101047.69;;;20.96;35.72
54556;BME280;57291;37.520;15.106;2023-04-06T06:19:00;101044.78;;;20.57;36.07
54556;BME280;57291;37.520;15.106;2023-04-06T06:21:27;101047.66;;;20.32;37.31
54556;BME280;57291;37.520;15.106;2023-04-06T06:23:54;101044.69;;;20.25;36.52
54556;BME280;57291;37.520;15.106;2023-04-06T06:26:22;101045.13;;;19.06;38.78
54556;BME280;57291;37.520;15.106;2023-04-06T06:28:50;101047.53;;;19.85;37.02
54556;BME280;57291;37.520;15.106;2023-04-06T06:31:17;101067.06;;;20.36;37.51
54556;BME280;57291;37.520;15.106;2023-04-06T06:33:47;101067.44;;;20.34;37.72
54556;BME280;57291;37.520;15.106;2023-04-06T06:36:18;101068.38;;;20.26;37.64
54556;BME280;57291;37.520;15.106;2023-04-06T06:38:46;101066.16;;;19.88;39.66
54556;BME280;57291;37.520;15.106;2023-04-06T06:41:16;101077.31;;;19.79;39.68
54556;BME280;57291;37.520;15.106;2023-04-06T06:43:43;101078.06;;;19.92;39.60
54556;BME280;57291;37.520;15.106;2023-04-06T06:46:11;101083.44;;;19.24;39.21
54556;BME280;57291;37.520;15.106;2023-04-06T06:48:39;101087.44;;;19.51;39.52
54556;BME280;57291;37.520;15.106;2023-04-06T06:51:07;101084.25;;;19.36;41.02
54556;BME280;57291;37.520;15.106;2023-04-06T06:53:36;101089.00;;;20.17;38.51
54556;BME280;57291;37.520;15.106;2023-04-06T06:56:03;101091.28;;;20.55;38.11
54556;BME280;57291;37.520;15.106;2023-04-06T06:58:31;101095.22;;;19.85;39.12
54556;BME280;57291;37.520;15.106;2023-04-06T07:00:59;101105.34;;;19.44;40.52
54556;BME280;57291;37.520;15.106;2023-04-06T07:03:30;101101.53;;;20.70;37.74
54556;BME280;57291;37.520;15.106;2023-04-06T07:05:59;101097.09;;;21.13;37.55
54556;BME280;57291;37.520;15.106;2023-04-06T07:08:26;101106.34;;;21.05;37.30
54556;BME280;57291;37.520;15.106;2023-04-06T07:10:53;101106.28;;;20.70;36.75
54556;BME280;57291;37.520;15.106;2023-04-06T07:13:23;101111.25;;;20.08;38.67
54556;BME280;57291;37.520;15.106;2023-04-06T07:15:54;101109.75;;;20.10;38.80
54556;BME280;57291;37.520;15.106;2023-04-06T07:18:22;101119.72;;;19.62;38.71
54556;BME280;57291;37.520;15.106;2023-04-06T07:20:49;101115.72;;;19.35;39.76
54556;BME280;57291;37.520;15.106;2023-04-06T07:23:17;101121.66;;;19.37;38.74
54556;BME280;57291;37.520;15.106;2023-04-06T07:25:44;101126.72;;;19.84;39.46
54556;BME280;57291;37.520;15.106;2023-04-06T07:28:12;101136.25;;;20.27;37.99
54556;BME280;57291;37.520;15.106;2023-04-06T07:30:40;101139.63;;;20.36;39.23
54556;BME280;57291;37.520;15.106;2023-04-06T07:33:09;101141.78;;;20.15;37.83
54556;BME280;57291;37.520;15.106;2023-04-06T07:35:37;101142.13;;;20.13;37.82
54556;BME280;57291;37.520;15.106;2023-04-06T07:38:06;101137.69;;;19.97;38.85
54556;BME280;57291;37.520;15.106;2023-04-06T07:40:34;101139.63;;;20.36;38.21
54556;BME280;57291;37.520;15.106;2023-04-06T07:43:02;101147.72;;;20.29;37.16
54556;BME280;57291;37.520;15.106;2023-04-06T07:45:30;101148.94;;;20.04;38.32
54556;BME280;57291;37.520;15.106;2023-04-06T07:47:59;101149.81;;;20.20;34.55
54556;BME280;57291;37.520;15.106;2023-04-06T07:50:27;101149.28;;;20.14;35.98
54556;BME280;57291;37.520;15.106;2023-04-06T07:52:55;101157.91;;;20.41;35.10
54556;BME280;57291;37.520;15.106;2023-04-06T07:55:23;101156.72;;;19.74;35.50
54556;BME280;57291;37.520;15.106;2023-04-06T07:57:50;101156.50;;;20.19;34.40
54556;BME280;57291;37.520;15.106;2023-04-06T08:00:18;101149.78;;;19.92;35.56
54556;BME280;57291;37.520;15.106;2023-04-06T08:02:46;101160.00;;;20.88;35.55
54556;BME280;57291;37.520;15.106;2023-04-06T08:05:13;101160.84;;;21.36;32.53
54556;BME280;57291;37.520;15.106;2023-04-06T08:07:40;101155.19;;;20.85;33.15
54556;BME280;57291;37.520;15.106;2023-04-06T08:10:08;101157.63;;;20.30;34.16
54556;BME280;57291;37.520;15.106;2023-04-06T08:12:35;101157.34;;;20.35;34.71
54556;BME280;57291;37.520;15.106;2023-04-06T08:15:03;101158.19;;;19.47;37.31
54556;BME280;57291;37.520;15.106;2023-04-06T08:17:32;101158.78;;;18.49;38.24
54556;BME280;57291;37.520;15.106;2023-04-06T08:19:59;101167.09;;;18.94;38.24
54556;BME280;57291;37.520;15.106;2023-04-06T08:22:27;101165.03;;;18.91;37.47
54556;BME280;57291;37.520;15.106;2023-04-06T08:24:54;101175.19;;;18.79;37.01
54556;BME280;57291;37.520;15.106;2023-04-06T08:27:21;101178.00;;;18.16;38.57
54556;BME280;57291;37.520;15.106;2023-04-06T08:29:49;101175.38;;;17.69;40.61
54556;BME280;57291;37.520;15.106;2023-04-06T08:32:16;101181.69;;;17.40;40.65
54556;BME280;57291;37.520;15.106;2023-04-06T08:34:44;101178.66;;;16.77;41.52
54556;BME280;57291;37.520;15.106;2023-04-06T08:37:11;101184.47;;;16.14;44.22
54556;BME280;57291;37.520;15.106;2023-04-06T08:39:38;101189.53;;;15.73;44.44
54556;BME280;57291;37.520;15.106;2023-04-06T08:42:12;101184.97;;;15.59;44.99
54556;BME280;57291;37.520;15.106;2023-04-06T08:44:39;101179.19;;;15.21;45.08
54556;BME280;57291;37.520;15.106;2023-04-06T08:47:08;101185.66;;;15.25;46.40
54556;BME280;57291;37.520;15.106;2023-04-06T08:49:37;101191.50;;;15.01;45.92
54556;BME280;57291;37.520;15.106;2023-04-06T08:52:07;101181.63;;;14.91;46.13
54556;BME280;57291;37.520;15.106;2023-04-06T08:54:34;101183.22;;;14.92;47.35
54556;BME280;57291;37.520;15.106;2023-04-06T08:57:02;101180.66;;;14.87;46.93
54556;BME280;57291;37.520;15.106;2023-04-06T08:59:31;101190.16;;;14.67;47.51
54556;BME280;57291;37.520;15.106;2023-04-06T09:01:59;101187.84;;;14.83;47.66
54556;BME280;57291;37.520;15.106;2023-04-06T09:04:28;101187.81;;;14.74;48.49
54556;BME280;57291;37.520;15.106;2023-04-06T09:06:56;101184.91;;;14.80;49.01
54556;BME280;57291;37.520;15.106;2023-04-06T09:09:23;101193.44;;;15.00;48.43
54556;BME280;57291;37.520;15.106;2023-04-06T09:11:52;101196.88;;;15.15;47.82
54556;BME280;57291;37.520;15.106;2023-04-06T09:14:38;101191.97;;;15.03;48.08
54556;BME280;57291;37.520;15.106;2023-04-06T09:17:06;101201.84;;;15.13;47.58
54556;BME280;57291;37.520;15.106;2023-04-06T09:19:33;101200.25;;;15.12;47.83
54556;BME280;57291;37.520;15.106;2023-04-06T09:22:06;101193.09;;;15.02;48.60
54556;BME280;57291;37.520;15.106;2023-04-06T09:25:00;101197.97;;;15.05;48.77
54556;BME280;57291;37.520;15.106;2023-04-06T09:27:32;101193.19;;;14.88;48.40
54556;BME280;57291;37.520;15.106;2023-04-06T09:30:07;101194.56;;;14.77;48.06
54556;BME280;57291;37.520;15.106;2023-04-06T09:33:04;101201.31;;;14.71;49.18
54556;BME280;57291;37.520;15.106;2023-04-06T09:35:31;101198.75;;;14.74;50.57
54556;BME280;57291;37.520;15.106;2023-04-06T09:38:10;101204.03;;;14.71;50.92
54556;BME280;57291;37.520;15.106;2023-04-06T09:40:50;101210.50;;;14.75;50.89
54556;BME280;57291;37.520;15.106;2023-04-06T09:43:27;101200.16;;;14.94;50.46
54556;BME280;57291;37.520;15.106;2023-04-06T09:46:00;101198.25;;;15.04;50.35
54556;BME280;57291;37.520;15.106;2023-04-06T09:48:31;101208.91;;;15.05;51.50
54556;BME280;57291;37.520;15.106;2023-04-06T09:51:03;101203.59;;;15.40;50.92
54556;BME280;57291;37.520;15.106;2023-04-06T09:53:35;101209.25;;;15.43;51.74
54556;BME280;57291;37.520;15.106;2023-04-06T09:56:10;101213.25;;;15.06;52.62
54556;BME280;57291;37.520;15.106;2023-04-06T09:58:42;101209.53;;;14.80;52.84
54556;BME280;57291;37.520;15.106;2023-04-06T10:01:15;101215.78;;;14.71;53.58
54556;BME280;57291;37.520;15.106;2023-04-06T10:06:28;101221.19;;;15.16;53.38
54556;BME280;57291;37.520;15.106;2023-04-06T10:09:02;101235.13;;;15.29;54.57
54556;BME280;57291;37.520;15.106;2023-04-06T10:11:31;101223.75;;;15.13;55.01
54556;BME280;57291;37.520;15.106;2023-04-06T10:14:01;101223.13;;;15.16;55.53
54556;BME280;57291;37.520;15.106;2023-04-06T10:16:28;101221.16;;;15.08;53.18
54556;BME280;57291;37.520;15.106;2023-04-06T10:19:02;101219.19;;;15.31;54.27
54556;BME280;57291;37.520;15.106;2023-04-06T10:21:33;101220.84;;;15.40;52.45
54556;BME280;57291;37.520;15.106;2023-04-06T10:24:02;101221.38;;;15.51;53.87
54556;BME280;57291;37.520;15.106;2023-04-06T10:26:34;101218.41;;;15.39;54.23
54556;BME280;57291;37.520;15.106;2023-04-06T10:29:05;101222.22;;;15.29;53.68
54556;BME280;57291;37.520;15.106;2023-04-06T10:31:32;101214.19;;;15.01;55.58
54556;BME280;57291;37.520;15.106;2023-04-06T10:34:01;101223.03;;;15.30;55.93
54556;BME280;57291;37.520;15.106;2023-04-06T10:36:33;101215.72;;;15.16;52.89
54556;BME280;57291;37.520;15.106;2023-04-06T10:39:05;101209.78;;;14.92;53.41
54556;BME280;57291;37.520;15.106;2023-04-06T10:41:33;101211.66;;;14.83;55.53
54556;BME280;57291;37.520;15.106;2023-04-06T10:44:01;101214.00;;;15.20;55.50
54556;BME280;57291;37.520;15.106;2023-04-06T10:46:30;101211.53;;;15.50;53.26
54556;BME280;57291;37.520;15.106;2023-04-06T10:49:08;101208.88;;;15.67;55.08
54556;BME280;57291;37.520;15.106;2023-04-06T10:51:37;101207.34;;;15.53;54.13
54556;BME280;57291;37.520;15.106;2023-04-06T10:54:06;101208.25;;;15.39;56.14
54556;BME280;57291;37.520;15.106;2023-04-06T10:56:36;101205.97;;;15.33;55.49
54556;BME280;57291;37.520;15.106;2023-04-06T10:59:05;101219.19;;;15.31;57.71
54556;BME280;57291;37.520;15.106;2023-04-06T11:01:33;101218.88;;;15.72;55.31
54556;BME280;57291;37.520;15.106;2023-04-06T11:04:00;101220.06;;;15.80;55.80
54556;BME280;57291;37.520;15.106;2023-04-06T11:06:29;101224.16;;;16.17;54.38
54556;BME280;57291;37.520;15.106;2023-04-06T11:08:58;101209.72;;;15.77;51.73
54556;BME280;57291;37.520;15.106;2023-04-06T11:11:26;101218.69;;;15.29;53.08
54556;BME280;57291;37.520;15.106;2023-04-06T11:13:54;101218.63;;;15.20;54.18
54556;BME280;57291;37.520;15.106;2023-04-06T11:16:30;101206.97;;;15.37;54.97
54556;BME280;57291;37.520;15.106;2023-04-06T11:19:05;101209.38;;;15.69;55.28
54556;BME280;57291;37.520;15.106;2023-04-06T11:21:39;101205.72;;;15.83;54.54
54556;BME280;57291;37.520;15.106;2023-04-06T11:24:22;101207.50;;;15.87;54.76
54556;BME280;57291;37.520;15.106;2023-04-06T11:26:53;101203.16;;;16.04;52.13
54556;BME280;57291;37.520;15.106;2023-04-06T11:29:23;101207.13;;;15.71;52.70
54556;BME280;57291;37.520;15.106;2023-04-06T11:31:53;101214.41;;;15.45;53.96
54556;BME280;57291;37.520;15.106;2023-04-06T11:34:22;101213.09;;;15.34;55.39
54556;BME280;57291;37.520;15.106;2023-04-06T11:36:55;101213.28;;;15.46;56.20
54556;BME280;57291;37.520;15.106;2023-04-06T11:39:25;101218.16;;;15.18;56.68
54556;BME280;57291;37.520;15.106;2023-04-06T11:41:54;101216.50;;;14.86;53.59
54556;BME280;57291;37.520;15.106;2023-04-06T11:44:32;101219.66;;;15.24;56.14
54556;BME280;57291;37.520;15.106;2023-04-06T11:47:05;101220.41;;;15.95;50.14
54556;BME280;57291;37.520;15.106;2023-04-06T11:49:36;101219.97;;;16.20;48.28
54556;BME280;57291;37.520;15.106;2023-04-06T11:52:14;101219.00;;;16.33;48.86
54556;BME280;57291;37.520;15.106;2023-04-06T11:54:42;101222.19;;;15.52;51.10
54556;BME280;57291;37.520;15.106;2023-04-06T11:57:09;101218.56;;;15.34;54.98
54556;BME280;57291;37.520;15.106;2023-04-06T11:59:36;101218.84;;;15.23;53.52
54556;BME280;57291;37.520;15.106;2023-04-06T12:02:04;101208.00;;;14.87;55.11
54556;BME280;57291;37.520;15.106;2023-04-06T12:04:31;101220.44;;;14.71;57.84
54556;BME280;57291;37.520;15.106;2023-04-06T12:06:59;101218.44;;;14.63;58.28
54556;BME280;57291;37.520;15.106;2023-04-06T12:09:26;101213.16;;;14.66;58.95
54556;BME280;57291;37.520;15.106;2023-04-06T12:11:53;101210.56;;;14.47;60.36
54556;BME280;57291;37.520;15.106;2023-04-06T12:14:20;101216.50;;;14.27;62.03
54556;BME280;57291;37.520;15.106;2023-04-06T12:16:48;101207.13;;;14.19;62.38
54556;BME280;57291;37.520;15.106;2023-04-06T12:19:15;101212.78;;;14.23;60.94
54556;BME280;57291;37.520;15.106;2023-04-06T12:21:43;101221.91;;;14.18;61.05
54556;BME280;57291;37.520;15.106;2023-04-06T12:24:10;101216.66;;;14.08;62.61
54556;BME280;57291;37.520;15.106;2023-04-06T12:26:37;101215.56;;;14.09;57.49
54556;BME280;57291;37.520;15.106;2023-04-06T12:29:04;101204.22;;;14.02;57.85
54556;BME280;57291;37.520;15.106;2023-04-06T12:31:35;101200.59;;;13.93;56.14
54556;BME280;57291;37.520;15.106;2023-04-06T12:34:03;101187.53;;;13.90;56.04
54556;BME280;57291;37.520;15.106;2023-04-06T12:36:30;101189.88;;;13.82;56.59
54556;BME280;57291;37.520;15.106;2023-04-06T12:38:58;101192.13;;;13.67;58.60
54556;BME280;57291;37.520;15.106;2023-04-06T12:41:30;101200.31;;;13.80;56.71
54556;BME280;57291;37.520;15.106;2023-04-06T12:43:58;101194.00;;;13.94;57.01
54556;BME280;57291;37.520;15.106;2023-04-06T12:46:26;101188.09;;;14.14;56.67
54556;BME280;57291;37.520;15.106;2023-04-06T12:48:53;101188.44;;;13.85;57.21
54556;BME280;57291;37.520;15.106;2023-04-06T12:51:22;101199.50;;;13.66;58.25
54556;BME280;57291;37.520;15.106;2023-04-06T12:53:49;101209.63;;;13.66;60.33
54556;BME280;57291;37.520;15.106;2023-04-06T12:56:18;101205.19;;;13.70;60.45
54556;BME280;57291;37.520;15.106;2023-04-06T12:58:45;101204.34;;;13.83;59.35
54556;BME280;57291;37.520;15.106;2023-04-06T13:01:13;101215.28;;;13.83;58.74